createdAt,value
2022-08-06T00:00:46.040Z,15.00
2022-08-06T00:03:44.325Z,15.10
2022-08-06T00:06:39.065Z,15.10
2022-08-06T00:10:00.242Z,15.10
2022-08-06T00:12:49.940Z,15.10
2022-08-06T00:16:08.834Z,15.20
2022-08-06T00:18:59.368Z,15.20
2022-08-06T00:21:55.191Z,15.30
2022-08-06T00:24:49.820Z,15.40
2022-08-06T00:27:51.342Z,15.50
2022-08-06T00:30:46.807Z,15.60
2022-08-06T00:33:57.453Z,15.60
2022-08-06T00:36:52.437Z,15.60
2022-08-06T00:39:48.379Z,15.50
2022-08-06T00:42:43.356Z,15.50
2022-08-06T00:45:45.877Z,15.50
2022-08-06T00:48:53.944Z,15.60
2022-08-06T00:51:52.166Z,15.60
2022-08-06T00:54:46.959Z,15.70
2022-08-06T00:57:44.811Z,15.70
2022-08-06T01:00:40.568Z,15.80
2022-08-06T01:03:41.641Z,16.00
2022-08-06T01:06:36.938Z,16.00
2022-08-06T01:09:58.121Z,16.00
2022-08-06T01:12:53.189Z,16.00
2022-08-06T01:16:09.186Z,16.20
2022-08-06T01:21:20.659Z,16.30
2022-08-06T01:23:01.637Z,16.30
2022-08-06T01:26:09.552Z,16.30
2022-08-06T01:29:42.158Z,16.30
2022-08-06T01:32:55.056Z,16.40
2022-08-06T01:35:55.806Z,16.40
2022-08-06T01:38:59.784Z,16.50
2022-08-06T01:41:59.231Z,16.50
2022-08-06T01:44:57.234Z,16.50
2022-08-06T01:47:56.156Z,16.50
2022-08-06T01:50:53.376Z,16.50
2022-08-06T01:54:05.825Z,16.40
2022-08-06T01:57:04.530Z,16.40
2022-08-06T02:00:03.527Z,16.30
2022-08-06T02:03:04.132Z,16.40
2022-08-06T02:06:00.589Z,16.50
2022-08-06T02:08:56.412Z,16.50
2022-08-06T02:12:09.455Z,16.50
2022-08-06T02:15:13.057Z,16.50
2022-08-06T02:18:10.652Z,16.60
2022-08-06T02:21:32.733Z,16.70
2022-08-06T02:24:29.506Z,16.70
2022-08-06T02:27:43.407Z,16.80
2022-08-06T02:30:43.331Z,16.80
2022-08-06T02:34:02.647Z,16.80
2022-08-06T02:37:13.355Z,16.80
2022-08-06T02:40:47.583Z,16.80
2022-08-06T02:43:45.049Z,16.80
2022-08-06T02:46:52.949Z,16.80
2022-08-06T02:49:57.928Z,16.80
2022-08-06T02:53:03.625Z,16.90
2022-08-06T02:56:16.029Z,16.90
2022-08-06T02:59:11.969Z,16.90
2022-08-06T03:02:09.236Z,16.90
2022-08-06T03:05:13.574Z,16.90
2022-08-06T03:08:12.036Z,16.90
2022-08-06T03:11:10.360Z,17.00
2022-08-06T03:14:12.745Z,17.10
2022-08-06T03:17:23.918Z,17.10
2022-08-06T03:20:25.384Z,17.10
2022-08-06T03:23:21.139Z,17.10
2022-08-06T03:26:15.860Z,17.20
2022-08-06T03:29:15.209Z,17.30
2022-08-06T03:32:24.476Z,17.40
2022-08-06T03:35:42.180Z,17.40
2022-08-06T03:38:44.255Z,17.40
2022-08-06T03:42:08.347Z,17.40
2022-08-06T03:44:55.924Z,17.50
2022-08-06T03:48:07.251Z,17.50
2022-08-06T03:51:09.045Z,17.60
2022-08-06T03:54:06.608Z,17.70
2022-08-06T03:57:08.235Z,17.70
2022-08-06T04:00:05.769Z,17.70
2022-08-06T04:03:02.838Z,17.70
2022-08-06T04:06:00.349Z,17.80
2022-08-06T04:08:56.695Z,17.70
2022-08-06T04:12:37.252Z,17.60
2022-08-06T04:15:08.694Z,17.60
2022-08-06T04:18:03.696Z,17.60
2022-08-06T04:21:20.906Z,17.70
2022-08-06T04:24:22.223Z,17.60
2022-08-06T04:27:24.336Z,17.60
2022-08-06T04:30:28.941Z,17.70
2022-08-06T04:33:35.161Z,17.80
2022-08-06T04:36:31.444Z,17.80
2022-08-06T04:39:38.493Z,17.90
2022-08-06T04:42:44.597Z,17.90
2022-08-06T04:46:16.111Z,17.80
2022-08-06T04:49:00.837Z,17.80
2022-08-06T04:52:46.439Z,17.80
2022-08-06T04:55:25.402Z,17.70
2022-08-06T04:58:32.847Z,17.60
2022-08-06T05:01:27.886Z,17.70
2022-08-06T05:04:22.608Z,17.50
2022-08-06T05:07:24.438Z,17.50
2022-08-06T05:10:28.797Z,17.60
2022-08-06T05:13:28.487Z,17.60
2022-08-06T05:16:37.499Z,17.50
2022-08-06T05:19:41.285Z,17.60
2022-08-06T05:22:53.831Z,17.50
2022-08-06T05:25:54.303Z,17.50
2022-08-06T05:28:51.503Z,17.50
2022-08-06T05:31:47.356Z,17.40
2022-08-06T05:34:51.524Z,17.30
2022-08-06T05:38:04.391Z,17.20
2022-08-06T05:40:59.316Z,17.20
2022-08-06T05:43:57.971Z,17.30
2022-08-06T05:47:05.212Z,17.40
2022-08-06T05:50:09.686Z,17.40
2022-08-06T05:53:10.877Z,17.50
2022-08-06T05:56:10.285Z,17.40
2022-08-06T05:59:29.492Z,17.40
2022-08-06T06:02:26.899Z,17.40
2022-08-06T06:06:07.032Z,17.30
2022-08-06T06:08:40.336Z,17.40
2022-08-06T06:12:01.675Z,17.40
2022-08-06T06:14:58.284Z,17.40
2022-08-06T06:18:33.786Z,17.30
2022-08-06T06:21:49.095Z,17.20
2022-08-06T06:25:12.722Z,17.10
2022-08-06T06:28:46.939Z,17.10
2022-08-06T06:32:07.537Z,17.00
2022-08-06T06:35:40.869Z,17.00
2022-08-06T06:39:02.828Z,16.90
2022-08-06T06:42:08.567Z,16.90
2022-08-06T06:46:05.043Z,16.80
2022-08-06T06:48:56.899Z,16.90
2022-08-06T06:52:08.360Z,16.80
2022-08-06T06:55:55.393Z,16.80
2022-08-06T06:59:20.817Z,16.70
2022-08-06T07:02:27.652Z,16.70
2022-08-06T07:06:05.298Z,16.70
2022-08-06T07:08:50.684Z,16.70
2022-08-06T07:12:02.780Z,16.60
2022-08-06T07:15:01.344Z,16.60
2022-08-06T07:18:08.657Z,16.50
2022-08-06T07:21:05.913Z,16.50
2022-08-06T07:24:07.100Z,16.40
2022-08-06T07:27:15.431Z,16.30
2022-08-06T07:30:12.246Z,16.30
2022-08-06T07:33:07.876Z,16.30
2022-08-06T07:36:03.084Z,16.20
2022-08-06T07:39:14.951Z,16.10
2022-08-06T07:42:16.819Z,16.10
2022-08-06T07:45:17.037Z,16.10
2022-08-06T07:48:15.230Z,16.00
2022-08-06T07:51:10.533Z,16.00
2022-08-06T07:54:10.198Z,16.00
2022-08-06T07:57:05.426Z,16.00
2022-08-06T08:00:13.999Z,16.00
2022-08-06T08:03:57.526Z,15.90
2022-08-06T08:06:45.344Z,15.90
2022-08-06T08:10:01.273Z,15.90
2022-08-06T08:13:02.409Z,15.80
2022-08-06T08:15:59.476Z,15.80
2022-08-06T08:18:55.593Z,15.80
2022-08-06T08:21:51.044Z,15.70
2022-08-06T08:24:54.324Z,15.70
2022-08-06T08:27:49.509Z,15.70
2022-08-06T08:30:48.004Z,15.70
2022-08-06T08:33:44.922Z,15.60
2022-08-06T08:36:41.153Z,15.60
2022-08-06T08:39:35.792Z,15.60
2022-08-06T08:42:56.006Z,15.60
2022-08-06T08:45:55.743Z,15.60
2022-08-06T08:48:50.972Z,15.60
2022-08-06T08:51:49.710Z,15.60
2022-08-06T08:54:50.636Z,15.60
2022-08-06T08:58:40.331Z,15.50
2022-08-06T09:01:01.702Z,15.50
2022-08-06T09:03:56.291Z,15.50
2022-08-06T09:06:52.000Z,15.50
2022-08-06T09:10:00.619Z,15.40
2022-08-06T09:12:56.688Z,15.40
2022-08-06T09:15:51.508Z,15.40
2022-08-06T09:18:46.385Z,15.40
2022-08-06T09:21:43.503Z,15.40
2022-08-06T09:24:39.580Z,15.40
2022-08-06T09:27:59.399Z,15.40
2022-08-06T09:31:01.358Z,15.40
2022-08-06T09:34:30.276Z,15.30
2022-08-06T09:37:53.311Z,15.30
2022-08-06T09:41:07.043Z,15.30
2022-08-06T09:44:35.039Z,15.20
2022-08-06T09:47:27.140Z,15.10
2022-08-06T09:50:53.953Z,15.10
2022-08-06T09:54:21.720Z,15.10
2022-08-06T09:57:16.504Z,15.00
2022-08-06T10:00:39.071Z,15.10
2022-08-06T10:04:05.402Z,15.10
2022-08-06T10:07:02.226Z,15.10
2022-08-06T10:10:02.974Z,15.10
2022-08-06T10:13:14.746Z,15.10
2022-08-06T10:16:29.398Z,15.10
2022-08-06T10:19:24.030Z,15.10
2022-08-06T10:22:30.838Z,15.10
2022-08-06T10:25:29.662Z,15.00
2022-08-06T10:28:28.683Z,15.00
2022-08-06T10:31:26.007Z,15.00
2022-08-06T10:34:23.402Z,15.00
2022-08-06T10:37:57.991Z,15.00
2022-08-06T10:40:42.259Z,14.90
2022-08-06T10:43:53.225Z,14.90
2022-08-06T10:46:50.070Z,14.90
2022-08-06T10:50:25.960Z,14.90
2022-08-06T10:53:00.615Z,14.80
2022-08-06T10:55:56.479Z,14.80
2022-08-06T10:58:51.243Z,14.80
2022-08-06T11:02:04.504Z,14.70
2022-08-06T11:05:08.073Z,14.60
2022-08-06T11:08:56.333Z,14.50
2022-08-06T11:12:08.198Z,14.50
2022-08-06T11:15:03.699Z,14.50
2022-08-06T11:18:07.629Z,14.50
2022-08-06T11:21:07.745Z,14.60
2022-08-06T11:24:06.660Z,14.60
2022-08-06T11:27:10.843Z,14.60
2022-08-06T11:30:14.021Z,14.60
2022-08-06T11:33:09.407Z,14.70
2022-08-06T11:36:04.859Z,14.70
2022-08-06T11:39:10.007Z,14.70
2022-08-06T11:42:11.968Z,14.70
2022-08-06T11:46:22.010Z,14.70
2022-08-06T11:48:27.348Z,14.70
2022-08-06T11:51:59.346Z,14.70
2022-08-06T11:55:12.598Z,14.60
2022-08-06T11:58:20.416Z,14.60
2022-08-06T12:01:34.427Z,14.60
2022-08-06T12:04:41.235Z,14.60
2022-08-06T12:07:51.736Z,14.60
2022-08-06T12:11:24.837Z,14.70
2022-08-06T12:14:49.017Z,14.70
2022-08-06T12:18:19.707Z,14.70
2022-08-06T12:21:16.022Z,14.60
2022-08-06T12:24:11.214Z,14.50
2022-08-06T12:27:10.436Z,14.50
2022-08-06T12:30:07.761Z,14.50
2022-08-06T12:33:03.739Z,14.40
2022-08-06T12:36:03.488Z,14.40
2022-08-06T12:39:00.682Z,14.40
2022-08-06T12:41:56.847Z,14.30
2022-08-06T12:44:57.550Z,14.30
2022-08-06T12:48:11.911Z,14.30
2022-08-06T12:51:18.617Z,14.30
2022-08-06T12:54:26.075Z,14.30
2022-08-06T12:57:28.753Z,14.30
2022-08-06T13:00:43.587Z,14.30
2022-08-06T13:03:42.089Z,14.30
2022-08-06T13:06:44.038Z,14.30
2022-08-06T13:09:51.311Z,14.30
2022-08-06T13:14:15.252Z,14.20
2022-08-06T13:16:28.707Z,14.20
2022-08-06T13:19:32.308Z,14.20
2022-08-06T13:22:35.324Z,14.20
2022-08-06T13:25:48.747Z,14.20
2022-08-06T13:30:34.193Z,14.20
2022-08-06T13:32:33.643Z,14.20
2022-08-06T13:35:32.780Z,14.20
2022-08-06T13:38:42.420Z,14.20
2022-08-06T13:41:39.849Z,14.20
2022-08-06T13:44:51.468Z,14.10
2022-08-06T13:47:57.379Z,14.10
2022-08-06T13:50:56.024Z,14.10
2022-08-06T13:53:50.853Z,14.10
2022-08-06T13:56:49.040Z,14.10
2022-08-06T13:59:46.140Z,14.10
2022-08-06T14:02:43.543Z,14.00
2022-08-06T14:05:39.864Z,14.00
2022-08-06T14:08:43.853Z,14.00
2022-08-06T14:11:42.060Z,14.00
2022-08-06T14:14:37.508Z,14.00
2022-08-06T14:17:36.198Z,14.10
2022-08-06T14:20:33.690Z,14.10
2022-08-06T14:23:39.922Z,14.10
2022-08-06T14:26:35.433Z,14.00
2022-08-06T14:30:28.500Z,14.00
2022-08-06T14:32:48.209Z,14.00
2022-08-06T14:35:46.040Z,14.00
2022-08-06T14:38:47.855Z,14.00
2022-08-06T14:42:02.197Z,14.00
2022-08-06T14:44:59.880Z,14.00
2022-08-06T14:47:58.681Z,13.90
2022-08-06T14:50:55.090Z,13.90
2022-08-06T14:53:49.569Z,13.90
2022-08-06T14:56:52.342Z,13.90
2022-08-06T14:59:53.913Z,13.90
2022-08-06T15:02:53.653Z,13.90
2022-08-06T15:06:05.247Z,14.00
2022-08-06T15:09:01.257Z,14.00
2022-08-06T15:12:00.373Z,14.00
2022-08-06T15:14:56.138Z,14.00
2022-08-06T15:18:14.094Z,13.90
2022-08-06T15:21:13.695Z,13.90
2022-08-06T15:24:08.826Z,13.90
2022-08-06T15:27:09.066Z,13.90
2022-08-06T15:30:03.946Z,13.80
2022-08-06T15:33:02.210Z,13.80
2022-08-06T15:36:06.947Z,13.80
2022-08-06T15:39:09.369Z,13.80
2022-08-06T15:42:05.169Z,13.80
2022-08-06T15:45:01.379Z,13.70
2022-08-06T15:47:56.036Z,13.70
2022-08-06T15:51:28.479Z,13.70
2022-08-06T15:54:09.795Z,13.70
2022-08-06T15:57:05.009Z,13.60
2022-08-06T16:00:17.868Z,13.60
2022-08-06T16:03:14.906Z,13.60
2022-08-06T16:06:25.452Z,13.50
2022-08-06T16:09:28.414Z,13.50
2022-08-06T16:12:24.102Z,13.60
2022-08-06T16:15:21.658Z,13.60
2022-08-06T16:18:31.396Z,13.50
2022-08-06T16:21:27.055Z,13.50
2022-08-06T16:24:21.829Z,13.50
2022-08-06T16:27:18.092Z,13.50
2022-08-06T16:30:13.122Z,13.50
2022-08-06T16:33:08.292Z,13.50
2022-08-06T16:36:02.821Z,13.50
2022-08-06T16:38:57.477Z,13.40
2022-08-06T16:41:58.757Z,13.30
2022-08-06T16:45:00.371Z,13.30
2022-08-06T16:48:18.274Z,13.20
2022-08-06T16:52:41.828Z,13.20
2022-08-06T16:54:31.165Z,13.10
2022-08-06T16:57:26.083Z,13.10
2022-08-06T17:00:59.678Z,13.20
2022-08-06T17:03:46.592Z,13.20
2022-08-06T17:06:42.005Z,13.20
2022-08-06T17:12:58.022Z,13.20
2022-08-06T17:16:00.514Z,13.20
2022-08-06T17:18:56.530Z,13.10
2022-08-06T17:25:21.609Z,13.20
2022-08-06T17:28:17.453Z,13.20
2022-08-06T17:31:13.416Z,13.30
2022-08-06T17:34:30.506Z,13.30
2022-08-06T17:37:25.276Z,13.30
2022-08-06T17:40:42.443Z,13.30
2022-08-06T17:43:57.080Z,13.30
2022-08-06T17:46:52.386Z,13.30
2022-08-06T17:49:47.161Z,13.30
2022-08-06T17:52:44.136Z,13.40
2022-08-06T17:55:42.849Z,13.40
2022-08-06T17:59:00.421Z,13.40
2022-08-06T18:02:06.009Z,13.40
2022-08-06T18:05:02.500Z,13.50
2022-08-06T18:08:10.867Z,13.40
2022-08-06T18:11:13.781Z,13.40
2022-08-06T18:14:31.950Z,13.40
2022-08-06T18:17:47.885Z,13.50
2022-08-06T18:20:41.818Z,13.40
2022-08-06T18:23:36.641Z,13.50
2022-08-06T18:26:33.048Z,13.50
2022-08-06T18:29:59.232Z,13.50
2022-08-06T18:32:42.410Z,13.50
2022-08-06T18:35:55.104Z,13.50
2022-08-06T18:38:51.769Z,13.40
2022-08-06T18:41:57.370Z,13.40
2022-08-06T18:44:52.818Z,13.50
2022-08-06T18:47:47.399Z,13.40
2022-08-06T18:50:47.913Z,13.40
2022-08-06T18:54:01.212Z,13.40
2022-08-06T18:56:59.642Z,13.40
2022-08-06T18:59:59.438Z,13.40
2022-08-06T19:02:55.323Z,13.40
2022-08-06T19:05:50.804Z,13.30
2022-08-06T19:08:45.471Z,13.30
2022-08-06T19:11:40.984Z,13.30
2022-08-06T19:14:35.966Z,13.30
2022-08-06T19:18:09.736Z,13.20
2022-08-06T19:20:46.710Z,13.20
2022-08-06T19:24:03.143Z,13.20
2022-08-06T19:26:56.616Z,13.10
2022-08-06T19:29:59.091Z,13.10
2022-08-06T19:33:01.104Z,13.00
2022-08-06T19:36:31.351Z,13.00
2022-08-06T19:39:53.950Z,13.00
2022-08-06T19:44:24.882Z,13.10
2022-08-06T19:46:30.711Z,13.00
2022-08-06T19:49:11.183Z,13.00
2022-08-06T19:52:10.290Z,13.00
2022-08-06T19:56:06.539Z,13.00
2022-08-06T19:58:27.006Z,12.90
2022-08-06T20:01:32.591Z,12.90
2022-08-06T20:04:30.354Z,12.90
2022-08-06T20:07:27.324Z,12.80
2022-08-06T20:10:35.708Z,12.80
2022-08-06T20:13:31.319Z,12.80
2022-08-06T20:16:31.385Z,12.70
2022-08-06T20:20:05.531Z,12.80
2022-08-06T20:22:42.644Z,12.80
2022-08-06T20:25:40.563Z,12.80
2022-08-06T20:29:07.062Z,12.80
2022-08-06T20:32:09.012Z,12.80
2022-08-06T20:35:06.555Z,12.80
2022-08-06T20:38:03.186Z,12.80
2022-08-06T20:41:58.303Z,12.70
2022-08-06T20:44:20.119Z,12.80
2022-08-06T20:47:54.607Z,12.80
2022-08-06T20:50:29.513Z,12.70
2022-08-06T20:53:24.803Z,12.70
2022-08-06T20:56:27.662Z,12.70
2022-08-06T20:59:23.026Z,12.70
2022-08-06T21:02:31.910Z,12.70
2022-08-06T21:05:29.105Z,12.60
2022-08-06T21:08:42.556Z,12.60
2022-08-06T21:11:38.981Z,12.60
2022-08-06T21:14:34.557Z,12.60
2022-08-06T21:17:35.630Z,12.60
2022-08-06T21:20:34.828Z,12.60
2022-08-06T21:23:56.699Z,12.60
2022-08-06T21:26:50.930Z,12.60
2022-08-06T21:30:08.775Z,12.60
2022-08-06T21:33:06.388Z,12.50
2022-08-06T21:36:01.818Z,12.50
2022-08-06T21:38:59.178Z,12.50
2022-08-06T21:41:58.287Z,12.50
2022-08-06T21:44:54.156Z,12.50
2022-08-06T21:47:54.884Z,12.50
2022-08-06T21:50:50.158Z,12.50
2022-08-06T21:53:52.504Z,12.60
2022-08-06T21:56:51.147Z,12.60
2022-08-06T21:59:52.628Z,12.70
2022-08-06T22:02:51.130Z,12.60
2022-08-06T22:06:20.988Z,12.60
2022-08-06T22:09:08.050Z,12.60
2022-08-06T22:12:38.141Z,12.70
2022-08-06T22:15:17.293Z,12.70
2022-08-06T22:18:17.082Z,12.70
2022-08-06T22:21:14.370Z,12.70
2022-08-06T22:24:09.201Z,12.70
2022-08-06T22:27:06.163Z,12.80
2022-08-06T22:30:18.837Z,12.80
2022-08-06T22:33:18.585Z,12.90
2022-08-06T22:36:18.087Z,12.90
2022-08-06T22:39:29.414Z,12.90
2022-08-06T22:42:56.070Z,12.90
2022-08-06T22:46:01.332Z,12.90
2022-08-06T22:48:58.281Z,13.00
2022-08-06T22:51:53.191Z,13.00
2022-08-06T22:54:58.836Z,13.00
2022-08-06T22:58:04.927Z,13.00
2022-08-06T23:02:03.992Z,13.00
2022-08-06T23:04:26.713Z,13.10
2022-08-06T23:07:25.999Z,13.10
2022-08-06T23:10:36.630Z,13.10
2022-08-06T23:13:44.614Z,13.20
2022-08-06T23:16:40.440Z,13.30
2022-08-06T23:19:56.395Z,13.40
2022-08-06T23:22:50.949Z,13.40
2022-08-06T23:26:01.902Z,13.40
2022-08-06T23:28:58.126Z,13.40
2022-08-06T23:31:52.695Z,13.50
2022-08-06T23:34:49.703Z,13.60
2022-08-06T23:37:55.421Z,13.60
2022-08-06T23:40:59.188Z,13.70
2022-08-06T23:43:53.840Z,13.80
2022-08-06T23:46:50.768Z,13.80
2022-08-06T23:49:46.132Z,13.90
2022-08-06T23:52:41.839Z,13.90
2022-08-06T23:55:57.196Z,14.00
2022-08-06T23:58:54.206Z,14.00
